createdAt,value
2023-05-07T00:00:35.863Z,98418.53
2023-05-07T00:03:02.462Z,98416.78
2023-05-07T00:05:29.174Z,98419.91
2023-05-07T00:07:57.042Z,98416.56
2023-05-07T00:10:24.974Z,98416.47
2023-05-07T00:12:51.459Z,98414.06
2023-05-07T00:15:17.948Z,98408.41
2023-05-07T00:17:44.434Z,98407.16
2023-05-07T00:20:11.443Z,98414.66
2023-05-07T00:22:38.623Z,98414.06
2023-05-07T00:25:06.033Z,98414.34
2023-05-07T00:27:32.634Z,98416.31
2023-05-07T00:29:59.099Z,98408.19
2023-05-07T00:32:25.588Z,98408.38
2023-05-07T00:34:52.224Z,98412.66
2023-05-07T00:37:19.472Z,98410.00
2023-05-07T00:39:45.936Z,98408.25
2023-05-07T00:42:12.411Z,98409.19
2023-05-07T00:44:38.936Z,98405.94
2023-05-07T00:47:05.678Z,98409.00
2023-05-07T00:49:39.704Z,98411.22
2023-05-07T00:52:07.788Z,98417.34
2023-05-07T00:54:34.956Z,98412.22
2023-05-07T00:57:02.120Z,98415.47
2023-05-07T00:59:28.671Z,98415.91
2023-05-07T01:01:55.203Z,98409.09
2023-05-07T01:04:21.686Z,98416.50
2023-05-07T01:06:48.725Z,98419.91
2023-05-07T01:09:15.697Z,98423.88
2023-05-07T01:11:43.593Z,98413.13
2023-05-07T01:14:10.100Z,98412.13
2023-05-07T01:16:37.647Z,98410.41
2023-05-07T01:19:04.144Z,98408.91
2023-05-07T01:21:31.399Z,98413.19
2023-05-07T01:23:57.903Z,98410.59
2023-05-07T01:26:24.714Z,98409.59
2023-05-07T01:28:51.614Z,98405.72
2023-05-07T01:31:18.171Z,98414.28
2023-05-07T01:33:44.680Z,98410.34
2023-05-07T01:36:11.371Z,98408.84
2023-05-07T01:38:37.872Z,98407.81
2023-05-07T01:41:04.342Z,98407.56
2023-05-07T01:43:30.972Z,98411.00
2023-05-07T01:45:58.260Z,98415.63
2023-05-07T01:48:25.452Z,98413.69
2023-05-07T01:50:52.268Z,98423.63
2023-05-07T01:53:18.738Z,98430.66
2023-05-07T01:55:46.215Z,98427.31
2023-05-07T01:58:12.769Z,98422.00
2023-05-07T02:00:40.682Z,98430.56
2023-05-07T02:03:07.234Z,98431.13
2023-05-07T02:05:33.856Z,98430.63
2023-05-07T02:08:00.374Z,98437.44
2023-05-07T02:10:26.844Z,98435.56
2023-05-07T02:12:53.360Z,98435.81
2023-05-07T02:15:19.933Z,98437.19
2023-05-07T02:18:08.908Z,98437.19
2023-05-07T02:20:35.404Z,98435.13
2023-05-07T02:23:01.920Z,98437.53
2023-05-07T02:25:28.395Z,98438.28
2023-05-07T02:27:57.069Z,98431.94
2023-05-07T02:30:23.549Z,98432.75
2023-05-07T02:32:50.063Z,98431.88
2023-05-07T02:35:16.665Z,98431.53
2023-05-07T02:37:43.126Z,98432.56
2023-05-07T02:40:10.287Z,98443.13
2023-05-07T02:42:36.878Z,98443.13
2023-05-07T02:45:03.521Z,98436.97
2023-05-07T02:47:30.051Z,98435.56
2023-05-07T02:49:56.617Z,98443.91
2023-05-07T02:52:23.146Z,98437.66
2023-05-07T02:54:49.811Z,98434.19
2023-05-07T02:57:16.575Z,98437.41
2023-05-07T02:59:43.821Z,98435.81
2023-05-07T03:02:11.085Z,98431.97
2023-05-07T03:04:37.673Z,98435.50
2023-05-07T03:07:04.355Z,98437.78
2023-05-07T03:09:30.843Z,98437.44
2023-05-07T03:11:57.622Z,98434.09
2023-05-07T03:14:24.398Z,98435.94
2023-05-07T03:16:50.919Z,98428.53
2023-05-07T03:19:17.401Z,98435.94
2023-05-07T03:21:43.862Z,98437.09
2023-05-07T03:24:10.482Z,98436.19
2023-05-07T03:26:36.933Z,98433.06
2023-05-07T03:29:03.387Z,98424.16
2023-05-07T03:31:29.864Z,98434.22
2023-05-07T03:33:57.435Z,98433.53
2023-05-07T03:36:24.200Z,98434.53
2023-05-07T03:38:50.978Z,98424.03
2023-05-07T03:41:17.446Z,98432.25
2023-05-07T03:43:43.915Z,98430.84
2023-05-07T03:46:10.505Z,98434.69
2023-05-07T03:48:36.984Z,98432.13
2023-05-07T03:51:03.455Z,98437.56
2023-05-07T03:53:29.926Z,98437.56
2023-05-07T03:55:56.401Z,98433.38
2023-05-07T03:58:22.865Z,98429.72
2023-05-07T04:00:50.202Z,98426.69
2023-05-07T04:03:16.816Z,98437.56
2023-05-07T04:05:43.348Z,98432.47
2023-05-07T04:08:09.805Z,98435.81
2023-05-07T04:10:36.268Z,98442.63
2023-05-07T04:13:02.790Z,98444.16
2023-05-07T04:15:29.351Z,98440.56
2023-05-07T04:17:56.008Z,98449.81
2023-05-07T04:20:22.485Z,98444.03
2023-05-07T04:22:48.942Z,98448.78
2023-05-07T04:25:16.489Z,98449.59
2023-05-07T04:27:42.962Z,98460.69
2023-05-07T04:30:09.976Z,98456.88
2023-05-07T04:32:38.353Z,98465.88
2023-05-07T04:35:05.301Z,98462.09
2023-05-07T04:37:33.401Z,98466.69
2023-05-07T04:39:59.960Z,98466.59
2023-05-07T04:42:26.500Z,98467.97
2023-05-07T04:44:54.083Z,98478.38
2023-05-07T04:47:20.637Z,98477.34
2023-05-07T04:49:47.637Z,98490.75
2023-05-07T04:52:14.161Z,98478.94
2023-05-07T04:54:40.633Z,98478.84
2023-05-07T04:57:07.163Z,98482.09
2023-05-07T04:59:33.924Z,98481.63
2023-05-07T05:02:00.545Z,98487.25
2023-05-07T05:04:27.134Z,98487.63
2023-05-07T05:06:53.844Z,98496.03
2023-05-07T05:09:20.321Z,98497.78
2023-05-07T05:11:47.092Z,98502.53
2023-05-07T05:14:13.567Z,98495.25
2023-05-07T05:16:40.102Z,98492.34
2023-05-07T05:19:07.865Z,98495.03
2023-05-07T05:21:34.334Z,98491.22
2023-05-07T05:24:00.859Z,98484.75
2023-05-07T05:26:27.350Z,98492.72
2023-05-07T05:28:53.838Z,98493.28
2023-05-07T05:31:20.355Z,98491.66
2023-05-07T05:33:46.906Z,98487.25
2023-05-07T05:36:14.211Z,98488.09
2023-05-07T05:38:41.221Z,98484.97
2023-05-07T05:41:07.748Z,98489.69
2023-05-07T05:43:34.269Z,98489.47
2023-05-07T05:46:01.723Z,98479.75
2023-05-07T05:48:29.893Z,98485.91
2023-05-07T05:50:56.366Z,98494.34
2023-05-07T05:53:22.896Z,98487.72
2023-05-07T05:55:50.076Z,98495.47
2023-05-07T05:58:16.558Z,98489.34
2023-05-07T06:00:43.050Z,98491.66
2023-05-07T06:03:09.848Z,98483.34
2023-05-07T06:05:36.359Z,98490.59
2023-05-07T06:08:02.870Z,98487.34
2023-05-07T06:10:29.422Z,98493.94
2023-05-07T06:12:56.037Z,98499.59
2023-05-07T06:15:22.544Z,98500.31
2023-05-07T06:17:50.087Z,98495.09
2023-05-07T06:20:16.673Z,98497.69
2023-05-07T06:22:43.140Z,98501.13
2023-05-07T06:25:09.782Z,98511.78
2023-05-07T06:27:36.293Z,98511.09
2023-05-07T06:30:02.822Z,98511.63
2023-05-07T06:32:29.320Z,98507.97
2023-05-07T06:34:56.635Z,98510.28
2023-05-07T06:37:23.122Z,98517.56
2023-05-07T06:39:50.291Z,98511.09
2023-05-07T06:42:16.782Z,98514.22
2023-05-07T06:44:43.255Z,98513.97
2023-05-07T06:47:09.711Z,98522.31
2023-05-07T06:49:36.190Z,98521.03
2023-05-07T06:52:02.696Z,98520.09
2023-05-07T06:54:29.912Z,98523.22
2023-05-07T06:56:56.398Z,98524.38
2023-05-07T06:59:22.913Z,98524.97
2023-05-07T07:01:49.511Z,98533.75
2023-05-07T07:04:16.128Z,98528.09
2023-05-07T07:06:42.746Z,98524.97
2023-05-07T07:09:09.309Z,98532.38
2023-05-07T07:11:35.906Z,98532.13
2023-05-07T07:14:02.386Z,98541.03
2023-05-07T07:16:28.932Z,98548.44
2023-05-07T07:18:55.423Z,98533.53
2023-05-07T07:21:21.921Z,98541.13
2023-05-07T07:23:48.412Z,98544.78
2023-05-07T07:26:14.879Z,98542.31
2023-05-07T07:28:45.501Z,98549.94
2023-05-07T07:31:12.335Z,98555.28
2023-05-07T07:33:38.898Z,98555.38
2023-05-07T07:36:06.413Z,98552.13
2023-05-07T07:38:32.892Z,98542.44
2023-05-07T07:40:59.363Z,98540.94
2023-05-07T07:43:25.849Z,98550.63
2023-05-07T07:45:52.338Z,98543.72
2023-05-07T07:48:18.804Z,98547.88
2023-05-07T07:50:46.404Z,98552.81
2023-05-07T07:53:13.138Z,98556.19
2023-05-07T07:55:42.743Z,98552.38
2023-05-07T07:58:09.232Z,98550.16
2023-05-07T08:00:35.704Z,98551.91
2023-05-07T08:03:04.223Z,98554.56
2023-05-07T08:05:30.947Z,98560.91
2023-05-07T08:07:57.430Z,98558.38
2023-05-07T08:10:23.917Z,98565.41
2023-05-07T08:12:50.666Z,98562.63
2023-05-07T08:15:17.659Z,98566.06
2023-05-07T08:17:44.420Z,98568.13
2023-05-07T08:20:11.238Z,98570.59
2023-05-07T08:22:38.057Z,98563.38
2023-05-07T08:25:04.738Z,98570.53
2023-05-07T08:27:31.211Z,98568.09
2023-05-07T08:29:57.727Z,98567.19
2023-05-07T08:32:24.224Z,98566.31
2023-05-07T08:34:50.701Z,98563.88
2023-05-07T08:37:17.183Z,98560.53
2023-05-07T08:39:43.649Z,98558.41
2023-05-07T08:42:10.659Z,98561.84
2023-05-07T08:44:37.157Z,98567.66
2023-05-07T08:47:03.622Z,98577.91
2023-05-07T08:49:30.133Z,98569.56
2023-05-07T08:51:56.825Z,98565.84
2023-05-07T08:54:23.350Z,98572.47
2023-05-07T08:56:49.873Z,98576.06
2023-05-07T08:59:16.358Z,98577.91
2023-05-07T09:01:42.993Z,98582.97
2023-05-07T09:04:10.282Z,98578.72
2023-05-07T09:06:38.906Z,98573.13
2023-05-07T09:09:06.455Z,98575.38
2023-05-07T09:11:33.061Z,98578.97
2023-05-07T09:14:02.196Z,98576.72
2023-05-07T09:16:30.782Z,98589.63
2023-05-07T09:18:58.533Z,98585.13
2023-05-07T09:21:25.066Z,98579.84
2023-05-07T09:23:52.264Z,98578.13
2023-05-07T09:26:19.052Z,98574.53
2023-05-07T09:28:45.564Z,98581.06
2023-05-07T09:31:12.222Z,98575.38
2023-05-07T09:33:39.259Z,98588.28
2023-05-07T09:36:06.630Z,98576.78
2023-05-07T09:38:34.017Z,98578.03
2023-05-07T09:41:08.298Z,98575.09
2023-05-07T09:43:38.621Z,98571.06
2023-05-07T09:46:15.520Z,98577.22
2023-05-07T09:48:43.552Z,98579.22
2023-05-07T09:51:28.785Z,98583.69
2023-05-07T09:53:55.381Z,98576.34
2023-05-07T09:56:22.153Z,98582.66
2023-05-07T09:58:49.665Z,98581.16
2023-05-07T10:01:16.491Z,98580.44
2023-05-07T10:03:43.572Z,98577.59
2023-05-07T10:06:11.431Z,98585.50
2023-05-07T10:08:38.111Z,98584.75
2023-05-07T10:11:07.707Z,98584.25
2023-05-07T10:13:36.633Z,98587.06
2023-05-07T10:16:04.416Z,98585.38
2023-05-07T10:18:33.821Z,98586.78
2023-05-07T10:21:17.404Z,98588.03
2023-05-07T10:23:46.070Z,98587.66
2023-05-07T10:26:12.599Z,98591.19
2023-05-07T10:28:40.873Z,98585.66
2023-05-07T10:31:43.319Z,98596.13
2023-05-07T10:34:11.641Z,98597.28
2023-05-07T10:36:38.662Z,98604.09
2023-05-07T10:39:05.848Z,98605.41
2023-05-07T10:41:32.339Z,98596.13
2023-05-07T10:44:02.174Z,98596.50
2023-05-07T10:46:29.090Z,98590.00
2023-05-07T10:49:05.259Z,98591.09
2023-05-07T10:51:33.546Z,98603.59
2023-05-07T10:54:12.513Z,98589.91
2023-05-07T10:56:45.502Z,98595.97
2023-05-07T10:59:21.186Z,98607.19
2023-05-07T11:02:08.505Z,98593.78
2023-05-07T11:04:35.817Z,98602.53
2023-05-07T11:07:12.913Z,98602.41
2023-05-07T11:10:06.367Z,98602.88
2023-05-07T11:12:39.332Z,98596.81
2023-05-07T11:15:12.861Z,98594.06
2023-05-07T11:17:56.225Z,98606.09
2023-05-07T11:20:45.925Z,98615.59
2023-05-07T11:23:34.440Z,98606.56
2023-05-07T11:26:07.614Z,98615.41
2023-05-07T11:28:41.231Z,98602.88
2023-05-07T11:31:07.959Z,98606.03
2023-05-07T11:33:34.789Z,98601.22
2023-05-07T11:36:01.534Z,98595.59
2023-05-07T11:38:28.007Z,98601.03
2023-05-07T11:40:57.324Z,98600.25
2023-05-07T11:43:23.844Z,98606.47
2023-05-07T11:45:50.458Z,98596.66
2023-05-07T11:48:17.322Z,98606.19
2023-05-07T11:50:52.094Z,98599.22
2023-05-07T11:53:18.584Z,98596.91
2023-05-07T11:55:45.377Z,98603.72
2023-05-07T11:58:13.380Z,98606.31
2023-05-07T12:00:39.844Z,98595.13
2023-05-07T12:03:06.745Z,98606.50
2023-05-07T12:05:33.522Z,98596.75
2023-05-07T12:07:59.999Z,98609.50
2023-05-07T12:10:26.618Z,98598.25
2023-05-07T12:12:53.127Z,98605.13
2023-05-07T12:15:19.617Z,98604.28
2023-05-07T12:17:46.165Z,98596.81
2023-05-07T12:20:12.799Z,98593.47
2023-05-07T12:22:39.270Z,98593.75
2023-05-07T12:25:06.612Z,98596.31
2023-05-07T12:27:33.179Z,98595.06
2023-05-07T12:30:00.321Z,98602.13
2023-05-07T12:32:26.920Z,98591.50
2023-05-07T12:34:53.446Z,98594.94
2023-05-07T12:37:24.672Z,98598.41
2023-05-07T12:40:04.270Z,98605.81
2023-05-07T12:42:33.974Z,98600.84
2023-05-07T12:45:00.514Z,98601.84
2023-05-07T12:47:27.083Z,98601.41
2023-05-07T12:49:53.583Z,98613.91
2023-05-07T12:52:20.056Z,98596.16
2023-05-07T12:54:46.507Z,98602.88
2023-05-07T12:57:13.269Z,98606.72
2023-05-07T12:59:42.763Z,98615.72
2023-05-07T13:02:09.547Z,98606.88
2023-05-07T13:04:36.608Z,98602.81
2023-05-07T13:07:03.356Z,98611.03
2023-05-07T13:09:30.081Z,98613.91
2023-05-07T13:11:56.550Z,98612.44
2023-05-07T13:14:23.038Z,98615.44
2023-05-07T13:16:50.292Z,98620.66
2023-05-07T13:19:16.940Z,98612.94
2023-05-07T13:21:43.436Z,98607.88
2023-05-07T13:24:09.952Z,98613.41
2023-05-07T13:26:36.759Z,98607.25
2023-05-07T13:29:03.389Z,98615.66
2023-05-07T13:31:29.930Z,98605.13
2023-05-07T13:33:57.230Z,98618.47
2023-05-07T13:36:23.735Z,98616.28
2023-05-07T13:38:51.526Z,98615.66
2023-05-07T13:41:18.001Z,98615.19
2023-05-07T13:43:44.726Z,98622.78
2023-05-07T13:46:11.491Z,98614.50
2023-05-07T13:48:38.003Z,98612.94
2023-05-07T13:51:04.472Z,98613.13
2023-05-07T13:53:30.939Z,98616.44
2023-05-07T13:55:57.416Z,98611.56
2023-05-07T13:58:23.903Z,98608.00
2023-05-07T14:00:50.927Z,98603.13
2023-05-07T14:03:18.638Z,98600.50
2023-05-07T14:05:45.699Z,98597.56
2023-05-07T14:08:14.889Z,98600.00
2023-05-07T14:10:41.548Z,98603.44
2023-05-07T14:13:08.097Z,98603.44
2023-05-07T14:15:34.633Z,98590.66
2023-05-07T14:18:01.178Z,98602.34
2023-05-07T14:20:27.731Z,98599.69
2023-05-07T14:22:54.910Z,98609.28
2023-05-07T14:25:22.358Z,98606.50
2023-05-07T14:27:48.891Z,98606.31
2023-05-07T14:30:15.529Z,98599.06
2023-05-07T14:32:42.165Z,98601.69
2023-05-07T14:35:09.392Z,98600.47
2023-05-07T14:37:36.129Z,98604.84
2023-05-07T14:40:02.659Z,98601.53
2023-05-07T14:42:29.164Z,98604.00
2023-05-07T14:44:55.677Z,98608.66
2023-05-07T14:47:22.225Z,98604.31
2023-05-07T14:49:48.699Z,98610.34
2023-05-07T14:52:15.349Z,98605.38
2023-05-07T14:54:41.945Z,98605.31
2023-05-07T14:57:10.500Z,98612.25
2023-05-07T14:59:36.994Z,98611.00
2023-05-07T15:02:06.157Z,98607.19
2023-05-07T15:04:33.553Z,98595.53
2023-05-07T15:07:00.069Z,98601.69
2023-05-07T15:09:26.650Z,98611.47
2023-05-07T15:11:53.151Z,98615.94
2023-05-07T15:14:19.682Z,98610.31
2023-05-07T15:16:46.744Z,98607.63
2023-05-07T15:19:15.658Z,98616.31
2023-05-07T15:21:42.190Z,98621.41
2023-05-07T15:24:10.257Z,98620.25
2023-05-07T15:26:37.062Z,98619.72
2023-05-07T15:29:05.927Z,98625.28
2023-05-07T15:31:33.096Z,98617.19
2023-05-07T15:34:00.923Z,98615.94
2023-05-07T15:36:28.392Z,98619.31
2023-05-07T15:38:54.876Z,98620.69
2023-05-07T15:41:21.514Z,98612.50
2023-05-07T15:43:49.030Z,98619.38
2023-05-07T15:46:19.479Z,98609.19
2023-05-07T15:48:46.221Z,98614.25
2023-05-07T15:51:13.265Z,98621.06
2023-05-07T15:53:40.856Z,98614.81
2023-05-07T15:56:07.672Z,98609.53
2023-05-07T15:58:34.841Z,98611.91
2023-05-07T16:01:01.387Z,98616.50
2023-05-07T16:03:28.836Z,98609.94
2023-05-07T16:05:57.749Z,98603.97
2023-05-07T16:08:24.555Z,98616.78
2023-05-07T16:10:51.173Z,98612.13
2023-05-07T16:13:19.350Z,98616.16
2023-05-07T16:15:46.283Z,98606.69
2023-05-07T16:18:16.113Z,98610.31
2023-05-07T16:20:46.000Z,98608.38
2023-05-07T16:23:13.099Z,98612.88
2023-05-07T16:25:39.657Z,98614.66
2023-05-07T16:28:06.290Z,98609.13
2023-05-07T16:30:32.804Z,98612.56
2023-05-07T16:32:59.327Z,98610.56
2023-05-07T16:35:25.871Z,98614.50
2023-05-07T16:37:52.977Z,98627.16
2023-05-07T16:40:19.739Z,98625.00
2023-05-07T16:42:46.210Z,98623.06
2023-05-07T16:45:12.864Z,98621.00
2023-05-07T16:47:39.669Z,98623.28
2023-05-07T16:50:06.740Z,98624.59
2023-05-07T16:52:33.261Z,98621.28
2023-05-07T16:55:01.511Z,98634.06
2023-05-07T16:57:29.407Z,98630.00
2023-05-07T16:59:55.998Z,98623.91
2023-05-07T17:02:22.782Z,98620.50
2023-05-07T17:04:49.262Z,98621.69
2023-05-07T17:07:16.281Z,98624.91
2023-05-07T17:09:42.813Z,98612.75
2023-05-07T17:12:09.303Z,98622.50
2023-05-07T17:14:37.939Z,98625.81
2023-05-07T17:17:04.469Z,98629.69
2023-05-07T17:19:31.390Z,98625.59
2023-05-07T17:21:57.880Z,98622.31
2023-05-07T17:24:24.349Z,98623.16
2023-05-07T17:26:50.855Z,98625.47
2023-05-07T17:29:17.354Z,98628.09
2023-05-07T17:31:43.904Z,98631.94
2023-05-07T17:34:12.077Z,98633.47
2023-05-07T17:36:38.544Z,98643.72
2023-05-07T17:39:05.055Z,98637.34
2023-05-07T17:41:31.522Z,98644.09
2023-05-07T17:43:58.010Z,98644.91
2023-05-07T17:46:24.507Z,98643.72
2023-05-07T17:48:52.235Z,98648.06
2023-05-07T17:51:18.705Z,98647.56
2023-05-07T17:53:45.288Z,98651.53
2023-05-07T17:56:12.878Z,98663.91
2023-05-07T17:58:56.184Z,98655.91
2023-05-07T18:01:25.538Z,98659.75
2023-05-07T18:03:52.300Z,98654.53
2023-05-07T18:06:20.751Z,98661.66
2023-05-07T18:08:47.274Z,98664.44
2023-05-07T18:11:13.799Z,98667.59
2023-05-07T18:13:40.551Z,98664.47
2023-05-07T18:16:07.472Z,98670.13
2023-05-07T18:18:35.372Z,98676.13
2023-05-07T18:21:02.230Z,98673.91
2023-05-07T18:23:28.721Z,98683.25
2023-05-07T18:25:55.378Z,98680.75
2023-05-07T18:28:21.864Z,98682.44
2023-05-07T18:30:48.362Z,98686.84
2023-05-07T18:33:14.954Z,98687.47
2023-05-07T18:35:41.468Z,98690.06
2023-05-07T18:38:08.069Z,98693.19
2023-05-07T18:40:34.560Z,98690.63
2023-05-07T18:43:06.499Z,98696.53
2023-05-07T18:45:35.898Z,98697.06
2023-05-07T18:48:02.433Z,98702.72
2023-05-07T18:50:29.285Z,98703.25
2023-05-07T18:52:55.740Z,98703.25
2023-05-07T18:55:22.388Z,98701.53
2023-05-07T18:57:49.256Z,98699.47
2023-05-07T19:00:16.054Z,98701.44
2023-05-07T19:02:42.632Z,98703.13
2023-05-07T19:05:09.297Z,98705.00
2023-05-07T19:07:35.775Z,98707.56
2023-05-07T19:10:05.681Z,98705.06
2023-05-07T19:12:32.622Z,98707.16
2023-05-07T19:14:59.092Z,98701.25
2023-05-07T19:17:25.744Z,98710.78
2023-05-07T19:19:52.227Z,98709.19
2023-05-07T19:22:18.721Z,98712.19
2023-05-07T19:24:45.215Z,98724.13
2023-05-07T19:27:11.743Z,98725.50
2023-05-07T19:29:38.215Z,98726.47
2023-05-07T19:32:05.013Z,98730.06
2023-05-07T19:34:31.616Z,98736.06
2023-05-07T19:36:59.064Z,98734.72
2023-05-07T19:39:25.568Z,98734.22
2023-05-07T19:41:52.054Z,98728.66
2023-05-07T19:44:18.534Z,98731.31
2023-05-07T19:46:46.267Z,98741.75
2023-05-07T19:49:13.170Z,98745.56
2023-05-07T19:51:39.894Z,98745.69
2023-05-07T19:54:06.470Z,98753.25
2023-05-07T19:56:32.990Z,98749.56
2023-05-07T19:58:59.525Z,98749.91
2023-05-07T20:01:26.701Z,98758.09
2023-05-07T20:03:53.278Z,98759.31
2023-05-07T20:06:19.901Z,98770.81
2023-05-07T20:08:46.379Z,98758.44
2023-05-07T20:11:14.110Z,98760.84
2023-05-07T20:13:40.600Z,98765.09
2023-05-07T20:16:07.153Z,98770.47
2023-05-07T20:18:33.980Z,98772.59
2023-05-07T20:21:00.468Z,98772.47
2023-05-07T20:23:29.605Z,98771.66
2023-05-07T20:25:57.572Z,98775.09
2023-05-07T20:28:24.289Z,98775.81
2023-05-07T20:30:50.964Z,98776.06
2023-05-07T20:33:17.538Z,98774.31
2023-05-07T20:35:44.145Z,98783.72
2023-05-07T20:38:10.666Z,98782.91
2023-05-07T20:40:37.897Z,98786.00
2023-05-07T20:43:05.743Z,98784.97
2023-05-07T20:45:32.435Z,98792.38
2023-05-07T20:47:59.840Z,98794.53
2023-05-07T20:50:26.863Z,98789.56
2023-05-07T20:52:53.367Z,98800.81
2023-05-07T20:55:19.844Z,98787.94
2023-05-07T20:57:46.778Z,98801.44
2023-05-07T21:00:13.994Z,98804.22
2023-05-07T21:02:40.741Z,98806.09
2023-05-07T21:05:07.447Z,98799.81
2023-05-07T21:07:34.268Z,98804.50
2023-05-07T21:10:00.748Z,98800.41
2023-05-07T21:12:27.222Z,98808.25
2023-05-07T21:14:53.753Z,98806.00
2023-05-07T21:17:20.237Z,98812.28
2023-05-07T21:19:47.783Z,98805.00
2023-05-07T21:22:14.264Z,98814.41
2023-05-07T21:24:41.326Z,98808.16
2023-05-07T21:27:08.408Z,98818.25
2023-05-07T21:29:34.975Z,98812.84
2023-05-07T21:32:03.489Z,98817.44
2023-05-07T21:34:30.026Z,98808.75
2023-05-07T21:36:56.501Z,98800.84
2023-05-07T21:39:24.615Z,98803.25
2023-05-07T21:41:51.118Z,98808.47
2023-05-07T21:44:17.592Z,98814.59
2023-05-07T21:46:44.227Z,98808.78
2023-05-07T21:49:10.893Z,98806.75
2023-05-07T21:51:37.473Z,98802.28
2023-05-07T21:54:04.095Z,98797.78
2023-05-07T21:56:30.574Z,98804.84
2023-05-07T21:58:57.050Z,98801.06
2023-05-07T22:01:23.605Z,98796.41
2023-05-07T22:03:50.245Z,98805.94
2023-05-07T22:06:21.549Z,98804.59
2023-05-07T22:08:51.234Z,98810.84
2023-05-07T22:11:17.730Z,98808.09
2023-05-07T22:13:44.205Z,98804.19
2023-05-07T22:16:10.776Z,98800.47
2023-05-07T22:18:37.291Z,98806.53
2023-05-07T22:21:03.844Z,98806.09
2023-05-07T22:23:30.360Z,98805.53
2023-05-07T22:25:56.870Z,98800.94
2023-05-07T22:28:23.351Z,98795.53
2023-05-07T22:30:50.432Z,98792.06
2023-05-07T22:33:17.019Z,98795.78
2023-05-07T22:35:43.533Z,98804.81
2023-05-07T22:38:10.037Z,98803.19
2023-05-07T22:40:36.508Z,98802.06
2023-05-07T22:43:02.979Z,98803.19
2023-05-07T22:45:29.529Z,98799.84
2023-05-07T22:47:56.092Z,98808.97
2023-05-07T22:50:23.099Z,98807.72
2023-05-07T22:52:49.588Z,98798.34
2023-05-07T22:55:16.159Z,98797.25
2023-05-07T22:57:42.819Z,98803.75
2023-05-07T23:00:09.951Z,98795.09
2023-05-07T23:02:36.832Z,98788.06
2023-05-07T23:05:03.674Z,98784.13
2023-05-07T23:07:30.461Z,98787.03
2023-05-07T23:09:56.991Z,98794.41
2023-05-07T23:12:23.513Z,98788.88
2023-05-07T23:14:49.993Z,98800.16
2023-05-07T23:17:16.688Z,98802.13
2023-05-07T23:19:43.398Z,98794.47
2023-05-07T23:22:10.303Z,98794.31
2023-05-07T23:24:36.967Z,98797.56
2023-05-07T23:27:06.334Z,98796.44
2023-05-07T23:29:32.872Z,98801.97
2023-05-07T23:31:59.560Z,98796.03
2023-05-07T23:34:26.085Z,98787.38
2023-05-07T23:36:52.606Z,98795.09
2023-05-07T23:39:19.336Z,98795.03
2023-05-07T23:41:45.909Z,98787.25
2023-05-07T23:44:13.305Z,98790.03
2023-05-07T23:46:39.861Z,98793.63
2023-05-07T23:49:06.485Z,98800.34
2023-05-07T23:51:35.094Z,98800.66
2023-05-07T23:54:01.900Z,98797.31
2023-05-07T23:56:28.378Z,98804.75
2023-05-07T23:58:54.896Z,98810.97
